Time;durP1;ratioP1;P1;durP2;ratioP2;P2;SDS_P1;SDS_P2;PMS_P1;PMS_P2;Temp;Humidity;BMP_temperature;BMP_pressure;BME280_temperature;BME280_humidity;BME280_pressure;Samples;Min_cycle;Max_cycle;Signal;HPM_P1;HPM_P2
2023/05/10 00:02:04;;;;;;;;;;;;;;;6.61;56.53;102338.56;5074552;28;19924;-68
2023/05/10 00:04:29;;;;;;;;;;;;;;;6.60;56.57;102331.56;5074706;28;19989;-67
2023/05/10 00:06:55;;;;;;;;;;;;;;;6.58;56.76;102328.19;5074683;28;19912;-67
2023/05/10 00:09:20;;;;;;;;;;;;;;;6.56;57.84;102324.78;5074604;28;19916;-70
2023/05/10 00:11:45;;;;;;;;;;;;;;;6.55;57.86;102323.09;5074357;28;19912;-66
2023/05/10 00:14:11;;;;;;;;;;;;;;;6.55;57.83;102333.66;5074413;28;20015;-67
2023/05/10 00:16:36;;;;;;;;;;;;;;;6.53;57.72;102331.97;5074443;28;19919;-67
2023/05/10 00:19:01;;;;;;;;;;;;;;;6.52;56.96;102330.28;5074102;28;20325;-67
2023/05/10 00:21:28;;;;;;;;;;;;;;;6.52;57.53;102327.63;5074290;28;20374;-68
2023/05/10 00:23:53;;;;;;;;;;;;;;;6.49;58.72;102335.78;5074234;28;19920;-69
2023/05/10 00:26:18;;;;;;;;;;;;;;;6.49;57.76;102338.41;5073972;28;19913;-66
2023/05/10 00:28:44;;;;;;;;;;;;;;;6.47;58.13;102337.66;5073995;28;19919;-68
2023/05/10 00:31:09;;;;;;;;;;;;;;;6.44;58.84;102335.22;5073913;28;19917;-67
2023/05/10 00:33:35;;;;;;;;;;;;;;;6.42;58.84;102339.75;5074130;28;19913;-68
2023/05/10 00:36:00;;;;;;;;;;;;;;;6.41;58.76;102345.16;5073860;28;20362;-69
2023/05/10 00:38:25;;;;;;;;;;;;;;;6.38;59.42;102343.56;5073941;28;19959;-68
2023/05/10 00:40:51;;;;;;;;;;;;;;;6.37;59.86;102343.66;5074004;28;20383;-68
2023/05/10 00:43:16;;;;;;;;;;;;;;;6.34;59.92;102344.66;5073840;28;19917;-69
2023/05/10 00:45:41;;;;;;;;;;;;;;;6.33;60.18;102350.91;5073481;28;20371;-67
2023/05/10 00:48:08;;;;;;;;;;;;;;;6.30;60.67;102337.88;5073793;28;20417;-68
2023/05/10 00:50:33;;;;;;;;;;;;;;;6.27;62.26;102343.34;5073263;28;19916;-69
2023/05/10 00:52:59;;;;;;;;;;;;;;;6.25;61.23;102337.31;5073516;28;19920;-69
2023/05/10 00:55:25;;;;;;;;;;;;;;;6.26;57.47;102341.66;5073411;28;19912;-68
2023/05/10 00:57:51;;;;;;;;;;;;;;;6.32;56.96;102340.41;5073469;28;20058;-69
2023/05/10 01:00:18;;;;;;;;;;;;;;;6.34;60.16;102336.72;5073415;28;20003;-69
2023/05/10 01:02:47;;;;;;;;;;;;;;;6.32;59.85;102349.19;5073542;28;19916;-67
2023/05/10 01:05:12;;;;;;;;;;;;;;;6.27;60.01;102339.88;5073668;28;19970;-69
2023/05/10 01:07:38;;;;;;;;;;;;;;;6.24;58.36;102345.34;5073211;28;20317;-67
2023/05/10 01:10:04;;;;;;;;;;;;;;;6.24;59.85;102342.69;5073427;28;20276;-68
2023/05/10 01:12:30;;;;;;;;;;;;;;;6.21;59.46;102344.59;5073184;28;19917;-67
2023/05/10 01:14:55;;;;;;;;;;;;;;;6.17;60.17;102347.53;5072953;28;20382;-67
2023/05/10 01:17:21;;;;;;;;;;;;;;;6.14;60.88;102347.72;5073359;28;20363;-67
2023/05/10 01:19:47;;;;;;;;;;;;;;;6.10;60.45;102344.44;5073274;28;19920;-67
2023/05/10 01:22:21;;;;;;;;;;;;;;;6.08;59.73;102346.31;5073291;28;19912;-67
2023/05/10 01:24:52;;;;;;;;;;;;;;;6.06;60.27;102342.88;5072950;28;19913;-68
2023/05/10 01:27:24;;;;;;;;;;;;;;;6.05;60.23;102338.53;5072601;28;20011;-68
2023/05/10 01:29:49;;;;;;;;;;;;;;;6.03;61.05;102331.66;5073016;28;20441;-67
2023/05/10 01:32:23;;;;;;;;;;;;;;;6.02;61.03;102335.25;5072907;28;19912;-69
2023/05/10 01:34:51;;;;;;;;;;;;;;;6.01;60.73;102329.09;5072814;28;19999;-70
2023/05/10 01:37:20;;;;;;;;;;;;;;;6.02;60.30;102329.94;5072751;28;20016;-68
2023/05/10 01:39:49;;;;;;;;;;;;;;;6.02;60.81;102328.16;5072522;28;19919;-68
2023/05/10 01:42:17;;;;;;;;;;;;;;;6.03;60.09;102321.91;5072791;28;19912;-68
2023/05/10 01:44:49;;;;;;;;;;;;;;;6.05;59.60;102322.69;5072810;28;19919;-69
2023/05/10 01:47:17;;;;;;;;;;;;;;;6.06;60.82;102321.72;5072387;28;19923;-69
2023/05/10 01:49:53;;;;;;;;;;;;;;;6.08;59.91;102324.31;5072509;28;20037;-68
2023/05/10 01:52:20;;;;;;;;;;;;;;;6.13;59.87;102324.88;5072396;28;19961;-67
2023/05/10 01:54:50;;;;;;;;;;;;;;;6.15;59.20;102323.81;5072638;28;19912;-68
2023/05/10 01:57:16;;;;;;;;;;;;;;;6.18;59.53;102326.28;5072644;28;19995;-68
2023/05/10 01:59:45;;;;;;;;;;;;;;;6.21;60.58;102327.88;5072388;28;19955;-68
2023/05/10 02:02:11;;;;;;;;;;;;;;;6.26;60.27;102322.28;5072050;28;19920;-69
2023/05/10 02:04:38;;;;;;;;;;;;;;;6.28;60.29;102318.59;5071861;28;19917;-69
2023/05/10 02:07:04;;;;;;;;;;;;;;;6.32;59.84;102322.75;5072267;28;19963;-68
2023/05/10 02:09:31;;;;;;;;;;;;;;;6.36;58.73;102323.41;5071182;28;20272;-67
2023/05/10 02:11:59;;;;;;;;;;;;;;;6.38;58.82;102329.47;5072389;28;19913;-69
2023/05/10 02:14:26;;;;;;;;;;;;;;;6.41;59.04;102322.19;5072537;28;19920;-67
2023/05/10 02:16:53;;;;;;;;;;;;;;;6.44;58.76;102324.63;5072241;28;19913;-68
2023/05/10 02:19:19;;;;;;;;;;;;;;;6.46;59.30;102325.38;5072024;28;19912;-67
2023/05/10 02:22:05;;;;;;;;;;;;;;;6.47;58.74;102327.06;5071286;28;20004;-66
2023/05/10 02:24:31;;;;;;;;;;;;;;;6.49;58.64;102330.47;5072706;28;19916;-70
2023/05/10 02:26:57;;;;;;;;;;;;;;;6.50;58.31;102337.47;5072734;28;20007;-66
2023/05/10 02:29:24;;;;;;;;;;;;;;;6.52;57.57;102337.38;5072263;28;20011;-68
2023/05/10 02:31:51;;;;;;;;;;;;;;;6.51;58.52;102328.56;5072058;28;19912;-69
2023/05/10 02:34:16;;;;;;;;;;;;;;;6.51;58.94;102328.56;5071895;28;20271;-68
2023/05/10 02:36:42;;;;;;;;;;;;;;;6.55;58.64;102333.66;5072276;28;20356;-67
2023/05/10 02:39:12;;;;;;;;;;;;;;;6.56;59.55;102335.38;5072249;28;19920;-68
2023/05/10 02:41:38;;;;;;;;;;;;;;;6.59;59.17;102335.16;5072150;28;19935;-68
2023/05/10 02:44:06;;;;;;;;;;;;;;;6.61;58.46;102341.22;5071886;28;20360;-68
2023/05/10 02:46:31;;;;;;;;;;;;;;;6.63;59.23;102339.31;5070281;28;20011;-68
2023/05/10 02:48:57;;;;;;;;;;;;;;;6.67;59.68;102332.91;5072214;28;20007;-67
2023/05/10 02:51:25;;;;;;;;;;;;;;;6.70;59.46;102333.56;5072185;28;20010;-69
2023/05/10 02:53:51;;;;;;;;;;;;;;;6.74;60.18;102335.03;5071949;28;19916;-69
2023/05/10 02:56:28;;;;;;;;;;;;;;;6.80;59.71;102341.75;5071879;28;20383;-68
2023/05/10 02:58:54;;;;;;;;;;;;;;;6.87;59.13;102340.38;5072223;28;20398;-69
2023/05/10 03:01:20;;;;;;;;;;;;;;;6.90;59.91;102337.53;5055106;28;20053;-67
2023/05/10 03:03:46;;;;;;;;;;;;;;;6.93;59.32;102337.31;5105192;28;19928;-69
2023/05/10 03:06:12;;;;;;;;;;;;;;;6.97;59.99;102338.84;5072913;28;19913;-68
2023/05/10 03:08:37;;;;;;;;;;;;;;;7.23;59.62;102330.94;5072499;28;19966;-67
2023/05/10 03:11:06;;;;;;;;;;;;;;;8.82;57.44;102333.91;5070695;28;19952;-69
2023/05/10 03:13:43;;;;;;;;;;;;;;;10.95;52.32;102335.81;5071671;28;19946;-70
2023/05/10 03:16:12;;;;;;;;;;;;;;;12.73;46.30;102334.69;5075268;28;19912;-67
2023/05/10 03:18:57;;;;;;;;;;;;;;;13.53;43.38;102329.91;5075516;28;19913;-69
2023/05/10 03:21:25;;;;;;;;;;;;;;;14.30;42.58;102331.50;5075345;28;19912;-67
2023/05/10 03:23:54;;;;;;;;;;;;;;;14.84;41.34;102327.09;5075106;28;19923;-67
2023/05/10 03:26:26;;;;;;;;;;;;;;;15.50;40.66;102326.66;5075122;28;20310;-66
2023/05/10 03:28:52;;;;;;;;;;;;;;;16.30;39.30;102330.00;5075550;28;19919;-69
2023/05/10 03:31:18;;;;;;;;;;;;;;;16.71;38.15;102333.69;5075186;28;19912;-68
2023/05/10 03:33:51;;;;;;;;;;;;;;;16.63;38.05;102330.94;5075183;28;19935;-67
2023/05/10 03:36:16;;;;;;;;;;;;;;;15.89;38.77;102327.09;5075078;28;19923;-69
2023/05/10 03:38:41;;;;;;;;;;;;;;;15.01;40.16;102339.66;5074883;28;19918;-70
2023/05/10 03:41:07;;;;;;;;;;;;;;;14.00;41.34;102334.44;5075071;28;19912;-67
2023/05/10 03:43:32;;;;;;;;;;;;;;;13.18;43.12;102338.53;5076373;28;19913;-67
2023/05/10 03:45:58;;;;;;;;;;;;;;;12.59;44.40;102335.94;5074931;28;19913;-70
2023/05/10 03:48:24;;;;;;;;;;;;;;;12.13;45.85;102336.47;5074744;28;19916;-68
2023/05/10 03:50:49;;;;;;;;;;;;;;;11.83;46.66;102332.81;5074982;28;19962;-68
2023/05/10 03:53:14;;;;;;;;;;;;;;;12.22;45.75;102335.69;5074564;28;19912;-67
2023/05/10 03:55:40;;;;;;;;;;;;;;;12.30;44.75;102335.84;5075216;28;20394;-66
2023/05/10 03:58:05;;;;;;;;;;;;;;;12.05;44.10;102332.66;5075009;28;19913;-67
2023/05/10 04:00:31;;;;;;;;;;;;;;;11.90;43.03;102335.81;5074681;28;20248;-68
2023/05/10 04:02:56;;;;;;;;;;;;;;;11.94;43.89;102340.75;5074684;28;19912;-71
2023/05/10 04:05:22;;;;;;;;;;;;;;;12.13;42.29;102342.66;5074513;28;20437;-69
2023/05/10 04:07:49;;;;;;;;;;;;;;;12.49;40.74;102341.25;5074255;28;20007;-70
2023/05/10 04:10:15;;;;;;;;;;;;;;;13.06;40.79;102334.31;5074382;28;19924;-69
2023/05/10 04:12:41;;;;;;;;;;;;;;;13.99;39.62;102330.94;5074421;28;19917;-66
2023/05/10 04:15:07;;;;;;;;;;;;;;;15.15;37.72;102339.13;5074688;28;19919;-68
2023/05/10 04:17:32;;;;;;;;;;;;;;;15.39;35.90;102330.47;5073070;28;19919;-70
2023/05/10 04:19:57;;;;;;;;;;;;;;;14.51;35.63;102329.44;5057278;28;19967;-67
2023/05/10 04:22:23;;;;;;;;;;;;;;;13.43;36.80;102330.94;5056272;28;19962;-68
2023/05/10 04:24:48;;;;;;;;;;;;;;;12.56;37.93;102337.06;5074364;28;19965;-69
2023/05/10 04:27:14;;;;;;;;;;;;;;;11.91;38.62;102330.34;5073197;28;19913;-68
2023/05/10 04:29:39;;;;;;;;;;;;;;;11.47;40.05;102331.44;5074224;28;19913;-70
2023/05/10 04:32:04;;;;;;;;;;;;;;;12.21;40.45;102331.31;5074311;28;19912;-68
2023/05/10 04:34:30;;;;;;;;;;;;;;;13.90;38.24;102329.13;5074065;28;19916;-68
2023/05/10 04:36:55;;;;;;;;;;;;;;;14.21;36.99;102327.03;5074052;28;19912;-67
2023/05/10 04:39:20;;;;;;;;;;;;;;;13.55;37.70;102335.13;5074169;28;20385;-67
2023/05/10 04:41:46;;;;;;;;;;;;;;;12.70;37.38;102341.97;5074004;28;19912;-67
2023/05/10 04:44:11;;;;;;;;;;;;;;;12.60;38.84;102337.63;5073852;28;19982;-68
2023/05/10 04:46:36;;;;;;;;;;;;;;;14.07;37.13;102332.88;5072161;28;19958;-68
2023/05/10 04:49:02;;;;;;;;;;;;;;;15.74;34.97;102337.63;5073675;28;19921;-67
2023/05/10 04:51:27;;;;;;;;;;;;;;;16.96;32.98;102343.50;5073409;28;19912;-67
2023/05/10 04:53:52;;;;;;;;;;;;;;;17.74;30.23;102337.63;5073646;28;19923;-66
2023/05/10 04:56:18;;;;;;;;;;;;;;;18.16;29.58;102337.31;5073811;28;20003;-68
2023/05/10 04:58:43;;;;;;;;;;;;;;;18.35;29.89;102340.63;5074051;28;19912;-67
2023/05/10 05:01:12;;;;;;;;;;;;;;;18.18;27.64;102346.06;5073561;28;20427;-68
2023/05/10 05:03:37;;;;;;;;;;;;;;;17.91;29.01;102354.59;5072033;28;19916;-67
2023/05/10 05:06:02;;;;;;;;;;;;;;;17.33;29.23;102344.84;5073269;28;19916;-67
2023/05/10 05:08:28;;;;;;;;;;;;;;;15.95;30.35;102352.53;5073563;28;19913;-68
2023/05/10 05:10:54;;;;;;;;;;;;;;;14.76;32.87;102349.34;5073271;28;19920;-69
2023/05/10 05:13:19;;;;;;;;;;;;;;;13.67;33.17;102349.22;5073254;28;19913;-68
2023/05/10 05:15:45;;;;;;;;;;;;;;;13.15;34.47;102340.63;5073208;28;19958;-69
2023/05/10 05:18:11;;;;;;;;;;;;;;;12.81;35.78;102350.88;5072996;28;20269;-69
2023/05/10 05:20:36;;;;;;;;;;;;;;;12.58;36.27;102353.78;5073237;28;19912;-68
2023/05/10 05:23:01;;;;;;;;;;;;;;;12.42;34.41;102350.78;5073038;28;20415;-67
2023/05/10 05:25:27;;;;;;;;;;;;;;;12.32;35.63;102344.56;5073049;28;20321;-68
2023/05/10 05:27:52;;;;;;;;;;;;;;;12.22;35.13;102352.56;5072614;28;19919;-68
2023/05/10 05:30:17;;;;;;;;;;;;;;;12.17;35.99;102348.59;5072996;28;19913;-71
2023/05/10 05:32:43;;;;;;;;;;;;;;;12.10;37.18;102346.44;5071470;28;19919;-68
2023/05/10 05:35:08;;;;;;;;;;;;;;;12.07;37.35;102345.88;5072736;28;19965;-67
2023/05/10 05:37:33;;;;;;;;;;;;;;;12.02;38.00;102343.59;5071394;28;19919;-69
2023/05/10 05:40:01;;;;;;;;;;;;;;;11.94;38.39;102340.75;5072773;28;19912;-68
2023/05/10 05:42:26;;;;;;;;;;;;;;;11.88;38.75;102341.31;5072905;28;19957;-68
2023/05/10 05:44:51;;;;;;;;;;;;;;;11.85;38.47;102336.19;5072456;28;20024;-69
2023/05/10 05:47:17;;;;;;;;;;;;;;;11.82;39.20;102339.13;5072429;28;20026;-70
2023/05/10 05:49:45;;;;;;;;;;;;;;;11.81;40.40;102341.94;5071056;28;19922;-67
2023/05/10 05:52:10;;;;;;;;;;;;;;;11.87;41.02;102344.94;5072785;28;19912;-70
2023/05/10 05:54:36;;;;;;;;;;;;;;;11.86;40.86;102343.25;5072554;28;20367;-71
2023/05/10 05:57:01;;;;;;;;;;;;;;;11.86;41.23;102343.25;5073049;28;20330;-67
2023/05/10 05:59:27;;;;;;;;;;;;;;;11.85;41.81;102346.03;5072570;28;20414;-69
2023/05/10 06:01:52;;;;;;;;;;;;;;;11.84;42.47;102339.00;5071068;28;19944;-67
2023/05/10 06:04:19;;;;;;;;;;;;;;;11.85;43.91;102335.34;5072180;28;19970;-69
2023/05/10 06:06:44;;;;;;;;;;;;;;;11.87;43.50;102344.09;5072230;28;19924;-68
2023/05/10 06:09:10;;;;;;;;;;;;;;;11.89;44.72;102343.00;5072457;28;19916;-67
2023/05/10 06:11:36;;;;;;;;;;;;;;;11.88;44.06;102337.78;5072106;28;20364;-69
2023/05/10 06:14:01;;;;;;;;;;;;;;;11.86;43.76;102335.25;5072280;28;19913;-68
2023/05/10 06:16:27;;;;;;;;;;;;;;;11.89;44.40;102331.47;5072389;28;19913;-69
2023/05/10 06:18:52;;;;;;;;;;;;;;;11.92;44.96;102333.88;5072196;28;20352;-65
2023/05/10 06:21:17;;;;;;;;;;;;;;;11.97;44.48;102327.16;5072286;28;19912;-71
2023/05/10 06:23:43;;;;;;;;;;;;;;;11.98;45.11;102336.84;5072345;28;19912;-71
2023/05/10 06:26:09;;;;;;;;;;;;;;;11.95;44.59;102329.09;5072129;28;20070;-67
2023/05/10 06:28:34;;;;;;;;;;;;;;;12.02;44.68;102337.41;5072477;28;19912;-69
2023/05/10 06:31:00;;;;;;;;;;;;;;;12.00;46.08;102332.22;5070833;28;19916;-68
2023/05/10 06:33:25;;;;;;;;;;;;;;;12.05;44.90;102338.00;5072124;28;19924;-69
2023/05/10 06:35:51;;;;;;;;;;;;;;;12.10;45.26;102341.09;5072151;28;19931;-67
2023/05/10 06:38:16;;;;;;;;;;;;;;;12.09;46.22;102344.75;5072293;28;19912;-68
2023/05/10 06:40:42;;;;;;;;;;;;;;;12.14;45.37;102341.66;5071845;28;20007;-69
2023/05/10 06:43:07;;;;;;;;;;;;;;;12.19;45.25;102343.97;5071955;28;19948;-68
2023/05/10 06:45:32;;;;;;;;;;;;;;;12.22;45.13;102346.38;5072109;28;19912;-68
2023/05/10 06:47:58;;;;;;;;;;;;;;;12.20;45.17;102343.00;5072034;28;19963;-69
2023/05/10 06:50:24;;;;;;;;;;;;;;;12.18;45.37;102347.63;5074398;28;20390;-68
2023/05/10 06:52:49;;;;;;;;;;;;;;;12.24;45.41;102347.06;5075787;28;20014;-66
2023/05/10 06:55:15;;;;;;;;;;;;;;;12.31;45.37;102337.53;5075903;28;19913;-66
2023/05/10 06:57:40;;;;;;;;;;;;;;;12.32;45.59;102344.56;5075814;28;20256;-68
2023/05/10 07:00:05;;;;;;;;;;;;;;;12.38;45.61;102349.34;5075882;28;19974;-69
2023/05/10 07:02:31;;;;;;;;;;;;;;;12.42;45.78;102350.78;5075677;28;19951;-69
2023/05/10 07:04:57;;;;;;;;;;;;;;;12.47;44.92;102350.41;5075571;28;19923;-67
2023/05/10 07:07:22;;;;;;;;;;;;;;;12.45;45.07;102349.69;5075567;28;20352;-67
2023/05/10 07:09:49;;;;;;;;;;;;;;;12.46;45.16;102360.25;5075831;28;19912;-69
2023/05/10 07:12:14;;;;;;;;;;;;;;;12.45;45.06;102355.88;5075609;28;19912;-68
2023/05/10 07:14:40;;;;;;;;;;;;;;;12.52;45.09;102366.84;5075826;28;20382;-68
2023/05/10 07:17:05;;;;;;;;;;;;;;;12.57;45.56;102349.44;5075457;28;20360;-68
2023/05/10 07:19:32;;;;;;;;;;;;;;;12.60;46.46;102353.66;5075090;28;20252;-68
2023/05/10 07:21:57;;;;;;;;;;;;;;;12.62;45.63;102357.88;5075475;28;19995;-68
2023/05/10 07:24:24;;;;;;;;;;;;;;;12.59;45.59;102352.81;5075384;28;19947;-68
2023/05/10 07:26:49;;;;;;;;;;;;;;;12.67;45.32;102360.97;5075213;28;20371;-68
2023/05/10 07:29:14;;;;;;;;;;;;;;;12.79;46.25;102353.69;5073974;28;19919;-69
2023/05/10 07:31:41;;;;;;;;;;;;;;;12.88;44.20;102362.72;5075109;28;19920;-69
2023/05/10 07:34:07;;;;;;;;;;;;;;;12.94;44.65;102362.16;5075137;28;20012;-68
2023/05/10 07:36:32;;;;;;;;;;;;;;;13.06;44.19;102355.69;5075391;28;20015;-68
2023/05/10 07:38:57;;;;;;;;;;;;;;;13.16;44.08;102355.69;5075131;28;19912;-66
2023/05/10 07:41:23;;;;;;;;;;;;;;;13.22;44.17;102355.16;5074964;28;19913;-68
2023/05/10 07:43:48;;;;;;;;;;;;;;;13.32;43.71;102356.88;5074910;28;20279;-68
2023/05/10 07:46:14;;;;;;;;;;;;;;;13.43;43.13;102352.34;5074812;28;19920;-70
2023/05/10 07:48:39;;;;;;;;;;;;;;;13.53;42.17;102358.50;5073496;28;19916;-70
2023/05/10 07:51:06;;;;;;;;;;;;;;;13.60;41.60;102349.78;5075070;28;19917;-69
2023/05/10 07:53:31;;;;;;;;;;;;;;;13.69;41.34;102357.94;5074857;28;20040;-68
2023/05/10 07:55:58;;;;;;;;;;;;;;;13.80;40.27;102361.28;5074534;28;20003;-68
2023/05/10 07:58:23;;;;;;;;;;;;;;;13.88;40.68;102353.38;5074626;28;19919;-70
2023/05/10 08:00:49;;;;;;;;;;;;;;;13.97;40.17;102354.34;5071982;28;19913;-69
2023/05/10 08:03:14;;;;;;;;;;;;;;;14.05;40.28;102358.97;5106992;28;19919;-66
2023/05/10 08:05:40;;;;;;;;;;;;;;;14.12;39.71;102355.53;5074669;28;19961;-67
2023/05/10 08:08:05;;;;;;;;;;;;;;;14.19;39.66;102361.19;5074750;28;19912;-68
2023/05/10 08:10:31;;;;;;;;;;;;;;;14.18;39.48;102359.50;5074401;28;19920;-67
2023/05/10 08:12:58;;;;;;;;;;;;;;;14.20;40.12;102357.50;5074433;28;19912;-68
2023/05/10 08:15:23;;;;;;;;;;;;;;;14.20;39.57;102352.16;5074463;28;19912;-69
2023/05/10 08:17:49;;;;;;;;;;;;;;;14.25;39.12;102355.22;5074645;28;19919;-70
2023/05/10 08:20:16;;;;;;;;;;;;;;;14.24;38.66;102358.91;5074760;28;19999;-67
2023/05/10 08:22:42;;;;;;;;;;;;;;;14.24;39.35;102359.75;5073567;28;19912;-67
2023/05/10 08:25:07;;;;;;;;;;;;;;;14.18;39.52;102362.16;5075079;28;20308;-69
2023/05/10 08:27:32;;;;;;;;;;;;;;;14.23;39.79;102357.22;5074598;28;20248;-68
2023/05/10 08:29:58;;;;;;;;;;;;;;;14.28;39.49;102365.63;5074355;28;20360;-67
2023/05/10 08:32:23;;;;;;;;;;;;;;;14.36;39.80;102362.22;5073905;28;19912;-68
2023/05/10 08:34:48;;;;;;;;;;;;;;;14.38;38.66;102355.72;5074084;28;20324;-69
2023/05/10 08:37:14;;;;;;;;;;;;;;;14.36;39.06;102365.75;5072186;28;20250;-69
2023/05/10 08:39:39;;;;;;;;;;;;;;;14.31;38.43;102361.81;5073965;28;19912;-68
2023/05/10 08:42:06;;;;;;;;;;;;;;;14.10;39.01;102357.53;5073922;28;19965;-69
2023/05/10 08:44:36;;;;;;;;;;;;;;;14.17;39.67;102358.66;5074205;28;19942;-69
2023/05/10 08:47:03;;;;;;;;;;;;;;;14.26;39.75;102356.91;5074204;28;19928;-68
2023/05/10 08:49:30;;;;;;;;;;;;;;;14.25;39.65;102355.22;5074979;28;19916;-67
2023/05/10 08:51:57;;;;;;;;;;;;;;;14.23;40.29;102359.88;5074244;28;19912;-67
2023/05/10 08:54:22;;;;;;;;;;;;;;;14.16;41.05;102351.56;5074017;28;19912;-68
2023/05/10 08:56:48;;;;;;;;;;;;;;;14.15;40.93;102349.88;5073971;28;20035;-67
2023/05/10 08:59:14;;;;;;;;;;;;;;;14.08;42.01;102348.78;5073792;28;19912;-68
2023/05/10 09:01:40;;;;;;;;;;;;;;;14.06;41.96;102361.50;5073580;28;19921;-68
2023/05/10 09:04:05;;;;;;;;;;;;;;;14.08;42.27;102350.63;5073657;28;19913;-67
2023/05/10 09:06:32;;;;;;;;;;;;;;;14.19;42.11;102355.81;5073743;28;19920;-68
2023/05/10 09:08:58;;;;;;;;;;;;;;;14.27;42.34;102342.50;5073817;28;20275;-70
2023/05/10 09:11:24;;;;;;;;;;;;;;;14.31;42.42;102359.97;5073069;28;20288;-67
2023/05/10 09:13:50;;;;;;;;;;;;;;;14.26;42.03;102347.03;5072827;28;19919;-68
2023/05/10 09:16:16;;;;;;;;;;;;;;;14.30;42.18;102347.56;5073228;28;19995;-69
2023/05/10 09:18:41;;;;;;;;;;;;;;;14.36;42.25;102348.81;5073369;28;20450;-67
2023/05/10 09:21:06;;;;;;;;;;;;;;;14.39;41.76;102349.34;5071828;28;20390;-69
2023/05/10 09:23:32;;;;;;;;;;;;;;;14.40;42.12;102343.00;5073268;28;20089;-67
2023/05/10 09:26:07;;;;;;;;;;;;;;;14.43;42.04;102348.09;5073068;28;20280;-69
2023/05/10 09:28:33;;;;;;;;;;;;;;;14.40;42.12;102353.72;5073021;28;19936;-68
2023/05/10 09:30:58;;;;;;;;;;;;;;;14.40;42.54;102348.34;5073097;28;19919;-68
2023/05/10 09:33:23;;;;;;;;;;;;;;;14.46;42.50;102347.81;5072909;28;19912;-69
2023/05/10 09:35:51;;;;;;;;;;;;;;;14.50;42.57;102345.69;5073290;28;19948;-69
2023/05/10 09:38:16;;;;;;;;;;;;;;;14.53;42.01;102338.19;5072953;28;19912;-67
2023/05/10 09:40:54;;;;;;;;;;;;;;;14.50;42.05;102341.16;5072884;28;20356;-70
2023/05/10 09:43:19;;;;;;;;;;;;;;;14.50;42.26;102343.84;5072731;28;20399;-68
2023/05/10 09:45:47;;;;;;;;;;;;;;;14.54;42.12;102339.88;5072942;28;19913;-69
2023/05/10 09:48:13;;;;;;;;;;;;;;;14.61;41.83;102339.25;5072568;28;19962;-69
2023/05/10 09:50:38;;;;;;;;;;;;;;;14.69;41.60;102332.13;5072740;28;19917;-70
2023/05/10 09:53:04;;;;;;;;;;;;;;;14.78;41.08;102341.13;5072513;28;20347;-69
2023/05/10 09:55:40;;;;;;;;;;;;;;;14.75;39.72;102344.97;5072558;28;19958;-67
2023/05/10 09:58:09;;;;;;;;;;;;;;;14.78;39.51;102341.13;5072483;28;19919;-68
2023/05/10 10:00:38;;;;;;;;;;;;;;;14.82;40.15;102340.66;5072662;28;19912;-69
2023/05/10 10:03:04;;;;;;;;;;;;;;;14.81;39.81;102335.47;5072674;28;19951;-69
2023/05/10 10:05:34;;;;;;;;;;;;;;;14.82;39.90;102342.50;5072559;28;19919;-69
2023/05/10 10:08:00;;;;;;;;;;;;;;;14.88;39.54;102347.25;5072211;28;20283;-70
2023/05/10 10:10:26;;;;;;;;;;;;;;;14.94;39.75;102341.28;5072228;28;20011;-67
2023/05/10 10:12:51;;;;;;;;;;;;;;;15.02;39.82;102335.13;5072495;28;19920;-69
2023/05/10 10:15:17;;;;;;;;;;;;;;;15.03;39.53;102343.03;5072561;28;19912;-69
2023/05/10 10:17:43;;;;;;;;;;;;;;;15.05;39.07;102330.34;5072930;28;19913;-70
2023/05/10 10:20:08;;;;;;;;;;;;;;;15.06;38.92;102332.03;5072090;28;19912;-68
2023/05/10 10:22:34;;;;;;;;;;;;;;;15.12;37.94;102327.88;5070778;28;20065;-68
2023/05/10 10:25:00;;;;;;;;;;;;;;;15.18;38.45;102333.47;5071344;28;19922;-69
2023/05/10 10:27:36;;;;;;;;;;;;;;;15.26;38.15;102339.88;5072423;28;20388;-71
2023/05/10 10:30:04;;;;;;;;;;;;;;;15.21;37.39;102331.47;5072626;28;19924;-67
2023/05/10 10:33:00;;;;;;;;;;;;;;;15.25;37.01;102325.63;5072030;28;20386;-70
2023/05/10 10:35:25;;;;;;;;;;;;;;;15.32;37.42;102333.91;5072256;28;19923;-69
2023/05/10 10:37:51;;;;;;;;;;;;;;;15.34;36.44;102332.78;5072023;28;19916;-67
2023/05/10 10:40:26;;;;;;;;;;;;;;;15.38;37.06;102328.78;5071922;28;19999;-69
2023/05/10 10:42:53;;;;;;;;;;;;;;;15.39;36.16;102324.25;5071817;28;19913;-68
2023/05/10 10:45:19;;;;;;;;;;;;;;;15.40;35.74;102325.94;5071891;28;19919;-68
2023/05/10 10:47:44;;;;;;;;;;;;;;;15.38;36.42;102319.88;5071651;28;20015;-68
2023/05/10 10:50:12;;;;;;;;;;;;;;;15.42;36.14;102310.50;5071999;28;19917;-70
2023/05/10 10:52:41;;;;;;;;;;;;;;;15.46;36.86;102311.88;5071854;28;19912;-68
2023/05/10 10:55:10;;;;;;;;;;;;;;;15.54;36.36;102322.66;5071990;28;19913;-67
2023/05/10 10:57:49;;;;;;;;;;;;;;;15.55;35.95;102313.59;5072096;28;20011;-69
2023/05/10 11:00:31;;;;;;;;;;;;;;;15.54;36.19;102311.91;5070509;28;20395;-69
2023/05/10 11:02:58;;;;;;;;;;;;;;;15.54;36.60;102306.56;5072108;28;19958;-69
2023/05/10 11:05:32;;;;;;;;;;;;;;;15.55;36.41;102313.59;5071734;28;19912;-69
2023/05/10 11:07:59;;;;;;;;;;;;;;;15.61;36.39;102310.34;5071755;28;20241;-69
2023/05/10 11:10:25;;;;;;;;;;;;;;;15.68;35.94;102306.03;5071873;28;19974;-69
2023/05/10 11:13:03;;;;;;;;;;;;;;;15.67;35.36;102309.72;5071466;28;19912;-68
2023/05/10 11:15:33;;;;;;;;;;;;;;;15.66;34.70;102309.88;5087327;28;19912;-69
2023/05/10 11:17:59;;;;;;;;;;;;;;;15.70;34.35;102301.34;5071818;28;19919;-68
2023/05/10 11:20:32;;;;;;;;;;;;;;;15.68;34.79;102311.41;5071720;28;19912;-69
2023/05/10 11:23:10;;;;;;;;;;;;;;;15.67;34.64;102301.66;5071600;28;19913;-68
2023/05/10 11:25:40;;;;;;;;;;;;;;;15.71;34.31;102302.16;5071554;28;19912;-67
2023/05/10 11:28:05;;;;;;;;;;;;;;;15.78;33.23;102292.47;5104314;28;19957;-69
2023/05/10 11:30:31;;;;;;;;;;;;;;;15.78;33.28;102287.94;5071446;28;20014;-70
2023/05/10 11:32:56;;;;;;;;;;;;;;;15.83;33.68;102291.97;5070409;28;20276;-70
2023/05/10 11:35:21;;;;;;;;;;;;;;;15.85;33.02;102288.13;5072520;28;19913;-71
2023/05/10 11:37:47;;;;;;;;;;;;;;;15.89;31.95;102292.19;5074933;28;20315;-69
2023/05/10 11:40:13;;;;;;;;;;;;;;;15.88;32.24;102292.34;5075206;28;20372;-69
2023/05/10 11:42:38;;;;;;;;;;;;;;;15.82;31.65;102279.56;5075111;28;20011;-69
2023/05/10 11:45:04;;;;;;;;;;;;;;;15.74;31.56;102286.56;5075278;28;19912;-69
2023/05/10 11:47:31;;;;;;;;;;;;;;;15.76;33.05;102284.56;5074804;28;20287;-68
2023/05/10 11:49:57;;;;;;;;;;;;;;;15.79;32.06;102284.25;5074694;28;19920;-66
2023/05/10 11:52:23;;;;;;;;;;;;;;;15.83;31.53;102275.88;5074492;28;19916;-66
2023/05/10 11:54:51;;;;;;;;;;;;;;;15.90;31.21;102279.59;5074932;28;19913;-67
2023/05/10 11:57:18;;;;;;;;;;;;;;;15.98;31.17;102276.97;5073472;28;19913;-67
2023/05/10 11:59:43;;;;;;;;;;;;;;;15.95;31.25;102272.75;5074631;28;19916;-68
2023/05/10 12:02:09;;;;;;;;;;;;;;;16.00;31.85;102275.78;5074378;28;20341;-67
2023/05/10 12:04:35;;;;;;;;;;;;;;;15.99;30.71;102273.28;5074428;28;19919;-69
2023/05/10 12:07:00;;;;;;;;;;;;;;;16.02;30.73;102268.41;5072932;28;20019;-69
2023/05/10 12:09:25;;;;;;;;;;;;;;;16.06;30.61;102268.94;5074427;28;20015;-67
2023/05/10 12:11:55;;;;;;;;;;;;;;;16.05;29.98;102276.16;5074533;28;19924;-67
2023/05/10 12:14:21;;;;;;;;;;;;;;;16.01;29.63;102269.41;5074628;28;19912;-69
2023/05/10 12:16:47;;;;;;;;;;;;;;;16.02;30.11;102268.41;5080651;28;20252;-68
2023/05/10 12:19:18;;;;;;;;;;;;;;;15.99;30.00;102263.38;5077192;28;19958;-68
2023/05/10 12:21:43;;;;;;;;;;;;;;;15.99;30.48;102265.22;5074519;28;19960;-69
2023/05/10 12:24:10;;;;;;;;;;;;;;;16.00;30.45;102261.53;5074550;28;19994;-67
2023/05/10 12:26:36;;;;;;;;;;;;;;;15.98;29.97;102260.84;5074132;28;19913;-68
2023/05/10 12:29:20;;;;;;;;;;;;;;;16.00;29.32;102270.41;5074308;28;19916;-68
2023/05/10 12:31:52;;;;;;;;;;;;;;;16.01;30.23;102255.13;5078431;28;19912;-66
2023/05/10 12:34:27;;;;;;;;;;;;;;;16.04;30.78;102260.19;5075522;28;20249;-67
2023/05/10 12:36:53;;;;;;;;;;;;;;;16.06;29.94;102264.41;5075622;28;20015;-66